sensor_id;sensor_type;location;lat;lon;timestamp;temperature;humidity
55369;DHT22;41247;49.736;8.752;2022-08-21T00:01:51;14.80;99.90
55369;DHT22;41247;49.736;8.752;2022-08-21T00:05:36;14.80;99.90
55369;DHT22;41247;49.736;8.752;2022-08-21T00:09:19;14.70;99.90
55369;DHT22;41247;49.736;8.752;2022-08-21T00:13:03;14.70;99.90
55369;DHT22;41247;49.736;8.752;2022-08-21T00:16:44;14.70;99.90
55369;DHT22;41247;49.736;8.752;2022-08-21T00:20:25;14.70;99.90
55369;DHT22;41247;49.736;8.752;2022-08-21T00:24:05;14.60;99.90
55369;DHT22;41247;49.736;8.752;2022-08-21T00:27:46;14.60;99.90
55369;DHT22;41247;49.736;8.752;2022-08-21T00:31:27;14.50;99.90
55369;DHT22;41247;49.736;8.752;2022-08-21T00:35:12;14.50;99.90
55369;DHT22;41247;49.736;8.752;2022-08-21T00:38:55;14.50;99.90
55369;DHT22;41247;49.736;8.752;2022-08-21T00:42:36;14.50;99.90
55369;DHT22;41247;49.736;8.752;2022-08-21T00:46:17;14.40;99.90
55369;DHT22;41247;49.736;8.752;2022-08-21T00:49:58;14.40;99.90
55369;DHT22;41247;49.736;8.752;2022-08-21T00:53:41;14.40;99.90
55369;DHT22;41247;49.736;8.752;2022-08-21T00:57:31;14.40;99.90
55369;DHT22;41247;49.736;8.752;2022-08-21T01:01:13;14.30;99.90
55369;DHT22;41247;49.736;8.752;2022-08-21T01:04:54;14.30;99.90
55369;DHT22;41247;49.736;8.752;2022-08-21T01:08:35;14.30;99.90
55369;DHT22;41247;49.736;8.752;2022-08-21T01:12:16;14.20;99.90
55369;DHT22;41247;49.736;8.752;2022-08-21T01:15:58;14.20;99.90
55369;DHT22;41247;49.736;8.752;2022-08-21T01:19:40;14.10;99.90
55369;DHT22;41247;49.736;8.752;2022-08-21T01:23:20;14.10;99.90
55369;DHT22;41247;49.736;8.752;2022-08-21T01:27:01;14.00;99.90
55369;DHT22;41247;49.736;8.752;2022-08-21T01:30:43;14.00;99.90
55369;DHT22;41247;49.736;8.752;2022-08-21T01:34:24;13.90;99.90
55369;DHT22;41247;49.736;8.752;2022-08-21T01:38:04;13.90;99.90
55369;DHT22;41247;49.736;8.752;2022-08-21T01:41:45;13.90;99.90
55369;DHT22;41247;49.736;8.752;2022-08-21T01:45:26;13.80;99.90
55369;DHT22;41247;49.736;8.752;2022-08-21T01:49:07;13.80;99.90
55369;DHT22;41247;49.736;8.752;2022-08-21T01:52:48;13.80;99.90
55369;DHT22;41247;49.736;8.752;2022-08-21T01:56:39;13.80;99.90
55369;DHT22;41247;49.736;8.752;2022-08-21T02:00:22;13.70;99.90
55369;DHT22;41247;49.736;8.752;2022-08-21T02:04:03;13.70;99.90
55369;DHT22;41247;49.736;8.752;2022-08-21T02:07:47;13.60;99.90
55369;DHT22;41247;49.736;8.752;2022-08-21T02:11:31;13.60;99.90
55369;DHT22;41247;49.736;8.752;2022-08-21T02:15:13;13.50;99.90
55369;DHT22;41247;49.736;8.752;2022-08-21T02:18:54;13.50;99.90
55369;DHT22;41247;49.736;8.752;2022-08-21T02:22:34;13.50;99.90
55369;DHT22;41247;49.736;8.752;2022-08-21T02:26:15;13.40;99.90
55369;DHT22;41247;49.736;8.752;2022-08-21T02:29:57;13.40;99.90
55369;DHT22;41247;49.736;8.752;2022-08-21T02:33:38;13.40;99.90
55369;DHT22;41247;49.736;8.752;2022-08-21T02:37:18;13.30;99.90
55369;DHT22;41247;49.736;8.752;2022-08-21T02:41:00;13.30;99.90
55369;DHT22;41247;49.736;8.752;2022-08-21T02:44:41;13.30;99.90
55369;DHT22;41247;49.736;8.752;2022-08-21T02:48:25;13.30;99.90
55369;DHT22;41247;49.736;8.752;2022-08-21T02:52:07;13.30;99.90
55369;DHT22;41247;49.736;8.752;2022-08-21T02:55:50;13.20;99.90
55369;DHT22;41247;49.736;8.752;2022-08-21T02:59:32;13.20;99.90
55369;DHT22;41247;49.736;8.752;2022-08-21T03:03:13;13.20;99.90
55369;DHT22;41247;49.736;8.752;2022-08-21T03:06:54;13.10;99.90
55369;DHT22;41247;49.736;8.752;2022-08-21T03:10:40;13.10;99.90
55369;DHT22;41247;49.736;8.752;2022-08-21T03:14:25;13.10;99.90
55369;DHT22;41247;49.736;8.752;2022-08-21T03:18:06;13.10;99.90
55369;DHT22;41247;49.736;8.752;2022-08-21T03:21:47;13.10;99.90
55369;DHT22;41247;49.736;8.752;2022-08-21T03:25:30;13.10;99.90
55369;DHT22;41247;49.736;8.752;2022-08-21T03:29:11;13.10;99.90
55369;DHT22;41247;49.736;8.752;2022-08-21T03:32:51;13.00;99.90
55369;DHT22;41247;49.736;8.752;2022-08-21T03:36:32;13.00;99.90
55369;DHT22;41247;49.736;8.752;2022-08-21T03:40:15;13.00;99.90
55369;DHT22;41247;49.736;8.752;2022-08-21T03:43:56;13.00;99.90
55369;DHT22;41247;49.736;8.752;2022-08-21T03:47:37;13.00;99.90
55369;DHT22;41247;49.736;8.752;2022-08-21T03:51:18;12.90;99.90
55369;DHT22;41247;49.736;8.752;2022-08-21T03:54:59;12.90;99.90
55369;DHT22;41247;49.736;8.752;2022-08-21T03:58:39;12.90;99.90
55369;DHT22;41247;49.736;8.752;2022-08-21T04:02:21;12.90;99.90
55369;DHT22;41247;49.736;8.752;2022-08-21T04:06:02;12.80;99.90
55369;DHT22;41247;49.736;8.752;2022-08-21T04:09:43;12.80;99.90
55369;DHT22;41247;49.736;8.752;2022-08-21T04:13:24;12.80;99.90
55369;DHT22;41247;49.736;8.752;2022-08-21T04:17:05;12.80;99.90
55369;DHT22;41247;49.736;8.752;2022-08-21T04:20:48;12.80;99.90
55369;DHT22;41247;49.736;8.752;2022-08-21T04:24:30;12.80;99.90
55369;DHT22;41247;49.736;8.752;2022-08-21T04:28:11;12.80;99.90
55369;DHT22;41247;49.736;8.752;2022-08-21T04:31:51;12.80;99.90
55369;DHT22;41247;49.736;8.752;2022-08-21T04:35:32;12.80;99.90
55369;DHT22;41247;49.736;8.752;2022-08-21T04:39:12;12.80;99.90
55369;DHT22;41247;49.736;8.752;2022-08-21T04:42:58;12.80;99.90
55369;DHT22;41247;49.736;8.752;2022-08-21T04:46:41;12.80;99.90
55369;DHT22;41247;49.736;8.752;2022-08-21T04:50:29;12.90;99.90
55369;DHT22;41247;49.736;8.752;2022-08-21T04:54:17;12.90;99.90
55369;DHT22;41247;49.736;8.752;2022-08-21T04:58:00;13.00;99.90
55369;DHT22;41247;49.736;8.752;2022-08-21T05:01:41;13.00;99.90
55369;DHT22;41247;49.736;8.752;2022-08-21T05:05:23;13.00;99.90
55369;DHT22;41247;49.736;8.752;2022-08-21T05:09:04;13.10;99.90
55369;DHT22;41247;49.736;8.752;2022-08-21T05:12:46;13.10;99.90
55369;DHT22;41247;49.736;8.752;2022-08-21T05:16:27;13.20;99.90
55369;DHT22;41247;49.736;8.752;2022-08-21T05:20:09;13.20;99.90
55369;DHT22;41247;49.736;8.752;2022-08-21T05:23:50;13.30;99.90
55369;DHT22;41247;49.736;8.752;2022-08-21T05:27:31;13.40;99.90
55369;DHT22;41247;49.736;8.752;2022-08-21T05:31:12;13.40;99.90
55369;DHT22;41247;49.736;8.752;2022-08-21T05:34:52;13.50;99.90
55369;DHT22;41247;49.736;8.752;2022-08-21T05:38:33;13.60;99.90
55369;DHT22;41247;49.736;8.752;2022-08-21T05:42:14;13.60;99.90
55369;DHT22;41247;49.736;8.752;2022-08-21T05:45:54;13.70;99.90
55369;DHT22;41247;49.736;8.752;2022-08-21T05:49:36;13.70;99.90
55369;DHT22;41247;49.736;8.752;2022-08-21T05:53:18;13.80;99.90
55369;DHT22;41247;49.736;8.752;2022-08-21T05:56:59;13.90;99.90
55369;DHT22;41247;49.736;8.752;2022-08-21T06:00:40;13.90;99.90
55369;DHT22;41247;49.736;8.752;2022-08-21T06:04:21;14.00;99.90
55369;DHT22;41247;49.736;8.752;2022-08-21T06:08:02;14.00;99.90
55369;DHT22;41247;49.736;8.752;2022-08-21T06:11:42;14.10;99.90
55369;DHT22;41247;49.736;8.752;2022-08-21T06:15:23;14.20;99.90
55369;DHT22;41247;49.736;8.752;2022-08-21T06:19:04;14.20;99.90
55369;DHT22;41247;49.736;8.752;2022-08-21T06:22:44;14.30;99.90
55369;DHT22;41247;49.736;8.752;2022-08-21T06:26:25;14.40;99.90
55369;DHT22;41247;49.736;8.752;2022-08-21T06:30:06;14.50;99.90
55369;DHT22;41247;49.736;8.752;2022-08-21T06:33:48;14.60;99.90
55369;DHT22;41247;49.736;8.752;2022-08-21T06:37:28;14.70;99.90
55369;DHT22;41247;49.736;8.752;2022-08-21T06:41:09;14.80;99.90
55369;DHT22;41247;49.736;8.752;2022-08-21T06:44:49;15.00;99.90
55369;DHT22;41247;49.736;8.752;2022-08-21T06:48:30;15.20;99.90
55369;DHT22;41247;49.736;8.752;2022-08-21T06:52:12;15.40;99.90
55369;DHT22;41247;49.736;8.752;2022-08-21T06:55:53;15.80;99.90
55369;DHT22;41247;49.736;8.752;2022-08-21T06:59:34;16.10;99.90
55369;DHT22;41247;49.736;8.752;2022-08-21T07:03:24;16.60;99.90
55369;DHT22;41247;49.736;8.752;2022-08-21T07:07:15;16.90;99.90
55369;DHT22;41247;49.736;8.752;2022-08-21T07:10:57;17.30;99.90
55369;DHT22;41247;49.736;8.752;2022-08-21T07:14:39;17.60;99.90
55369;DHT22;41247;49.736;8.752;2022-08-21T07:18:20;18.00;99.90
55369;DHT22;41247;49.736;8.752;2022-08-21T07:22:02;18.20;99.90
55369;DHT22;41247;49.736;8.752;2022-08-21T07:25:43;18.50;99.90
55369;DHT22;41247;49.736;8.752;2022-08-21T07:29:24;18.70;99.90
55369;DHT22;41247;49.736;8.752;2022-08-21T07:33:05;19.00;99.90
55369;DHT22;41247;49.736;8.752;2022-08-21T07:36:45;19.20;99.90
55369;DHT22;41247;49.736;8.752;2022-08-21T07:40:26;19.30;99.90
55369;DHT22;41247;49.736;8.752;2022-08-21T07:44:06;19.60;99.90
55369;DHT22;41247;49.736;8.752;2022-08-21T07:47:48;19.80;99.90
55369;DHT22;41247;49.736;8.752;2022-08-21T07:51:29;20.00;99.90
55369;DHT22;41247;49.736;8.752;2022-08-21T07:55:12;20.10;99.90
55369;DHT22;41247;49.736;8.752;2022-08-21T07:58:55;20.30;99.90
55369;DHT22;41247;49.736;8.752;2022-08-21T08:02:35;20.40;99.90
55369;DHT22;41247;49.736;8.752;2022-08-21T08:06:16;20.60;99.90
55369;DHT22;41247;49.736;8.752;2022-08-21T08:09:57;20.80;99.90
55369;DHT22;41247;49.736;8.752;2022-08-21T08:13:40;20.90;99.90
55369;DHT22;41247;49.736;8.752;2022-08-21T08:17:21;21.10;99.90
55369;DHT22;41247;49.736;8.752;2022-08-21T08:21:03;21.30;99.90
55369;DHT22;41247;49.736;8.752;2022-08-21T08:24:44;21.50;99.90
55369;DHT22;41247;49.736;8.752;2022-08-21T08:28:25;21.70;99.90
55369;DHT22;41247;49.736;8.752;2022-08-21T08:32:06;21.80;99.90
55369;DHT22;41247;49.736;8.752;2022-08-21T08:35:50;22.10;99.90
55369;DHT22;41247;49.736;8.752;2022-08-21T08:39:31;22.50;99.90
55369;DHT22;41247;49.736;8.752;2022-08-21T08:43:12;22.80;99.90
55369;DHT22;41247;49.736;8.752;2022-08-21T08:46:54;22.80;99.90
55369;DHT22;41247;49.736;8.752;2022-08-21T08:50:56;22.70;99.90
55369;DHT22;41247;49.736;8.752;2022-08-21T08:54:41;22.80;99.90
55369;DHT22;41247;49.736;8.752;2022-08-21T08:58:37;23.00;99.90
55369;DHT22;41247;49.736;8.752;2022-08-21T09:02:20;22.80;99.90
55369;DHT22;41247;49.736;8.752;2022-08-21T09:06:10;22.80;99.90
55369;DHT22;41247;49.736;8.752;2022-08-21T09:10:22;22.80;99.90
55369;DHT22;41247;49.736;8.752;2022-08-21T09:14:15;23.00;99.90
55369;DHT22;41247;49.736;8.752;2022-08-21T09:26:47;23.90;99.90
55369;DHT22;41247;49.736;8.752;2022-08-21T09:30:33;24.20;99.90
55369;DHT22;41247;49.736;8.752;2022-08-21T09:34:30;24.30;99.90
55369;DHT22;41247;49.736;8.752;2022-08-21T09:38:11;24.50;99.90
55369;DHT22;41247;49.736;8.752;2022-08-21T09:42:07;24.70;99.90
55369;DHT22;41247;49.736;8.752;2022-08-21T09:46:02;24.80;99.90
55369;DHT22;41247;49.736;8.752;2022-08-21T09:49:43;24.70;99.90
55369;DHT22;41247;49.736;8.752;2022-08-21T09:53:26;24.70;99.90
55369;DHT22;41247;49.736;8.752;2022-08-21T10:00:58;24.90;99.90
55369;DHT22;41247;49.736;8.752;2022-08-21T10:04:40;25.10;99.90
55369;DHT22;41247;49.736;8.752;2022-08-21T10:08:23;25.20;99.90
55369;DHT22;41247;49.736;8.752;2022-08-21T10:12:21;25.40;99.90
55369;DHT22;41247;49.736;8.752;2022-08-21T10:20:25;25.90;99.90
55369;DHT22;41247;49.736;8.752;2022-08-21T10:24:52;26.10;99.90
55369;DHT22;41247;49.736;8.752;2022-08-21T10:29:09;26.00;99.90
55369;DHT22;41247;49.736;8.752;2022-08-21T10:54:35;25.90;99.90
55369;DHT22;41247;49.736;8.752;2022-08-21T10:58:42;26.20;99.90
55369;DHT22;41247;49.736;8.752;2022-08-21T11:02:42;26.30;99.90
55369;DHT22;41247;49.736;8.752;2022-08-21T11:06:31;26.50;99.90
55369;DHT22;41247;49.736;8.752;2022-08-21T11:10:25;26.50;99.90
55369;DHT22;41247;49.736;8.752;2022-08-21T11:14:36;26.70;99.90
55369;DHT22;41247;49.736;8.752;2022-08-21T11:18:38;26.60;99.90
55369;DHT22;41247;49.736;8.752;2022-08-21T11:22:35;26.70;99.90
55369;DHT22;41247;49.736;8.752;2022-08-21T11:26:49;26.10;99.90
55369;DHT22;41247;49.736;8.752;2022-08-21T11:39:25;26.90;99.90
55369;DHT22;41247;49.736;8.752;2022-08-21T11:43:18;26.40;99.90
55369;DHT22;41247;49.736;8.752;2022-08-21T11:47:10;25.70;99.90
55369;DHT22;41247;49.736;8.752;2022-08-21T11:50:56;25.80;99.90
55369;DHT22;41247;49.736;8.752;2022-08-21T11:58:56;27.10;99.90
55369;DHT22;41247;49.736;8.752;2022-08-21T12:02:45;27.50;99.90
55369;DHT22;41247;49.736;8.752;2022-08-21T12:06:33;27.90;99.90
55369;DHT22;41247;49.736;8.752;2022-08-21T12:10:31;28.10;99.90
55369;DHT22;41247;49.736;8.752;2022-08-21T12:14:16;28.30;99.90
55369;DHT22;41247;49.736;8.752;2022-08-21T12:18:22;27.90;99.90
55369;DHT22;41247;49.736;8.752;2022-08-21T12:22:12;27.60;99.90
55369;DHT22;41247;49.736;8.752;2022-08-21T12:26:18;27.60;99.90
55369;DHT22;41247;49.736;8.752;2022-08-21T12:30:18;27.80;99.90
55369;DHT22;41247;49.736;8.752;2022-08-21T12:34:09;27.40;99.90
55369;DHT22;41247;49.736;8.752;2022-08-21T12:37:58;26.90;99.90
55369;DHT22;41247;49.736;8.752;2022-08-21T12:41:48;26.80;99.90
55369;DHT22;41247;49.736;8.752;2022-08-21T12:45:42;27.40;99.90
55369;DHT22;41247;49.736;8.752;2022-08-21T12:49:43;27.50;99.90
55369;DHT22;41247;49.736;8.752;2022-08-21T12:53:48;27.00;99.90
55369;DHT22;41247;49.736;8.752;2022-08-21T12:57:30;27.50;99.90
55369;DHT22;41247;49.736;8.752;2022-08-21T13:01:31;27.40;99.90
55369;DHT22;41247;49.736;8.752;2022-08-21T13:05:19;27.60;99.90
55369;DHT22;41247;49.736;8.752;2022-08-21T13:09:11;28.20;99.90
55369;DHT22;41247;49.736;8.752;2022-08-21T13:12:56;28.20;99.90
55369;DHT22;41247;49.736;8.752;2022-08-21T13:16:38;28.20;99.90
55369;DHT22;41247;49.736;8.752;2022-08-21T13:20:24;28.50;99.90
55369;DHT22;41247;49.736;8.752;2022-08-21T13:28:00;29.10;99.90
55369;DHT22;41247;49.736;8.752;2022-08-21T13:32:13;29.20;99.90
55369;DHT22;41247;49.736;8.752;2022-08-21T13:39:40;29.30;99.90
55369;DHT22;41247;49.736;8.752;2022-08-21T13:43:27;29.40;99.90
55369;DHT22;41247;49.736;8.752;2022-08-21T13:47:13;29.40;99.90
55369;DHT22;41247;49.736;8.752;2022-08-21T13:50:56;29.30;99.90
55369;DHT22;41247;49.736;8.752;2022-08-21T13:54:39;29.40;99.90
55369;DHT22;41247;49.736;8.752;2022-08-21T13:58:29;29.30;99.90
55369;DHT22;41247;49.736;8.752;2022-08-21T14:02:20;29.80;99.90
55369;DHT22;41247;49.736;8.752;2022-08-21T14:06:14;29.70;99.90
55369;DHT22;41247;49.736;8.752;2022-08-21T14:10:05;29.60;99.90
55369;DHT22;41247;49.736;8.752;2022-08-21T14:17:39;29.90;99.90
55369;DHT22;41247;49.736;8.752;2022-08-21T14:21:34;30.00;99.70
55369;DHT22;41247;49.736;8.752;2022-08-21T14:29:08;29.80;99.50
55369;DHT22;41247;49.736;8.752;2022-08-21T14:32:49;30.00;99.20
55369;DHT22;41247;49.736;8.752;2022-08-21T14:36:30;29.90;98.60
55369;DHT22;41247;49.736;8.752;2022-08-21T14:40:11;29.80;99.00
55369;DHT22;41247;49.736;8.752;2022-08-21T14:43:53;29.70;99.00
55369;DHT22;41247;49.736;8.752;2022-08-21T14:47:34;30.00;99.90
55369;DHT22;41247;49.736;8.752;2022-08-21T14:51:15;30.20;98.20
55369;DHT22;41247;49.736;8.752;2022-08-21T14:54:55;30.30;98.40
55369;DHT22;41247;49.736;8.752;2022-08-21T14:58:39;30.10;97.10
55369;DHT22;41247;49.736;8.752;2022-08-21T15:02:22;30.00;99.00
55369;DHT22;41247;49.736;8.752;2022-08-21T15:06:04;30.10;98.40
55369;DHT22;41247;49.736;8.752;2022-08-21T15:09:45;30.20;98.80
55369;DHT22;41247;49.736;8.752;2022-08-21T15:13:26;29.80;97.70
55369;DHT22;41247;49.736;8.752;2022-08-21T15:17:10;29.40;98.00
55369;DHT22;41247;49.736;8.752;2022-08-21T15:20:51;29.10;96.80
55369;DHT22;41247;49.736;8.752;2022-08-21T15:24:32;29.10;98.80
55369;DHT22;41247;49.736;8.752;2022-08-21T15:28:14;29.20;97.80
55369;DHT22;41247;49.736;8.752;2022-08-21T15:31:58;28.70;97.20
55369;DHT22;41247;49.736;8.752;2022-08-21T15:35:41;28.00;98.00
55369;DHT22;41247;49.736;8.752;2022-08-21T15:39:22;27.90;98.30
55369;DHT22;41247;49.736;8.752;2022-08-21T15:43:04;28.20;98.10
55369;DHT22;41247;49.736;8.752;2022-08-21T15:46:45;28.20;98.10
55369;DHT22;41247;49.736;8.752;2022-08-21T15:50:26;27.80;98.70
55369;DHT22;41247;49.736;8.752;2022-08-21T15:54:08;27.40;99.20
55369;DHT22;41247;49.736;8.752;2022-08-21T15:57:51;27.10;99.10
55369;DHT22;41247;49.736;8.752;2022-08-21T16:01:33;26.90;98.60
55369;DHT22;41247;49.736;8.752;2022-08-21T16:05:15;26.80;98.90
55369;DHT22;41247;49.736;8.752;2022-08-21T16:08:56;26.70;99.90
55369;DHT22;41247;49.736;8.752;2022-08-21T16:12:47;26.60;99.90
55369;DHT22;41247;49.736;8.752;2022-08-21T16:16:30;26.40;99.70
55369;DHT22;41247;49.736;8.752;2022-08-21T16:20:17;26.40;99.40
55369;DHT22;41247;49.736;8.752;2022-08-21T16:24:02;26.30;99.90
55369;DHT22;41247;49.736;8.752;2022-08-21T16:27:53;26.40;99.30
55369;DHT22;41247;49.736;8.752;2022-08-21T16:31:38;26.40;99.20
55369;DHT22;41247;49.736;8.752;2022-08-21T16:35:20;26.30;99.90
55369;DHT22;41247;49.736;8.752;2022-08-21T16:39:02;26.10;99.90
55369;DHT22;41247;49.736;8.752;2022-08-21T16:42:43;26.10;99.90
55369;DHT22;41247;49.736;8.752;2022-08-21T16:46:24;26.00;99.90
55369;DHT22;41247;49.736;8.752;2022-08-21T16:50:06;25.90;99.90
55369;DHT22;41247;49.736;8.752;2022-08-21T16:53:47;25.70;99.90
55369;DHT22;41247;49.736;8.752;2022-08-21T16:57:28;25.50;99.90
55369;DHT22;41247;49.736;8.752;2022-08-21T17:01:11;25.30;99.90
55369;DHT22;41247;49.736;8.752;2022-08-21T17:04:52;25.10;99.90
55369;DHT22;41247;49.736;8.752;2022-08-21T17:08:34;24.90;99.90
55369;DHT22;41247;49.736;8.752;2022-08-21T17:12:15;24.70;99.90
55369;DHT22;41247;49.736;8.752;2022-08-21T17:15:56;24.40;99.90
55369;DHT22;41247;49.736;8.752;2022-08-21T17:19:37;24.20;99.90
55369;DHT22;41247;49.736;8.752;2022-08-21T17:23:18;23.90;99.90
55369;DHT22;41247;49.736;8.752;2022-08-21T17:26:59;23.70;99.90
55369;DHT22;41247;49.736;8.752;2022-08-21T17:30:41;23.40;99.90
55369;DHT22;41247;49.736;8.752;2022-08-21T17:34:22;23.00;99.90
55369;DHT22;41247;49.736;8.752;2022-08-21T17:38:03;22.70;99.90
55369;DHT22;41247;49.736;8.752;2022-08-21T17:41:44;22.40;99.90
55369;DHT22;41247;49.736;8.752;2022-08-21T17:45:25;22.20;99.90
55369;DHT22;41247;49.736;8.752;2022-08-21T17:49:06;21.90;99.90
55369;DHT22;41247;49.736;8.752;2022-08-21T17:52:47;21.60;99.90
55369;DHT22;41247;49.736;8.752;2022-08-21T17:56:32;21.20;99.90
55369;DHT22;41247;49.736;8.752;2022-08-21T18:00:16;20.80;99.90
55369;DHT22;41247;49.736;8.752;2022-08-21T18:03:58;20.50;99.90
55369;DHT22;41247;49.736;8.752;2022-08-21T18:07:39;20.30;99.90
55369;DHT22;41247;49.736;8.752;2022-08-21T18:11:24;20.00;99.90
55369;DHT22;41247;49.736;8.752;2022-08-21T18:15:07;19.70;99.90
55369;DHT22;41247;49.736;8.752;2022-08-21T18:18:49;19.60;99.90
55369;DHT22;41247;49.736;8.752;2022-08-21T18:22:30;19.40;99.90
55369;DHT22;41247;49.736;8.752;2022-08-21T18:26:18;19.20;99.90
55369;DHT22;41247;49.736;8.752;2022-08-21T18:30:05;19.00;99.90
55369;DHT22;41247;49.736;8.752;2022-08-21T18:33:47;18.80;99.90
55369;DHT22;41247;49.736;8.752;2022-08-21T18:37:28;18.60;99.90
55369;DHT22;41247;49.736;8.752;2022-08-21T18:41:09;18.40;99.90
55369;DHT22;41247;49.736;8.752;2022-08-21T18:44:51;18.30;99.90
55369;DHT22;41247;49.736;8.752;2022-08-21T18:48:33;18.20;99.90
55369;DHT22;41247;49.736;8.752;2022-08-21T18:52:14;18.10;99.90
55369;DHT22;41247;49.736;8.752;2022-08-21T18:55:55;18.00;99.90
55369;DHT22;41247;49.736;8.752;2022-08-21T18:59:37;17.90;99.90
55369;DHT22;41247;49.736;8.752;2022-08-21T19:03:20;17.70;99.90
55369;DHT22;41247;49.736;8.752;2022-08-21T19:07:01;17.60;99.90
55369;DHT22;41247;49.736;8.752;2022-08-21T19:10:43;17.50;99.90
55369;DHT22;41247;49.736;8.752;2022-08-21T19:14:25;17.40;99.90
55369;DHT22;41247;49.736;8.752;2022-08-21T19:18:10;17.40;99.90
55369;DHT22;41247;49.736;8.752;2022-08-21T19:21:52;17.30;99.90
55369;DHT22;41247;49.736;8.752;2022-08-21T19:25:33;17.40;99.90
55369;DHT22;41247;49.736;8.752;2022-08-21T19:29:16;17.30;99.90
55369;DHT22;41247;49.736;8.752;2022-08-21T19:32:58;17.30;99.90
55369;DHT22;41247;49.736;8.752;2022-08-21T19:36:39;17.20;99.90
55369;DHT22;41247;49.736;8.752;2022-08-21T19:40:20;17.10;99.90
55369;DHT22;41247;49.736;8.752;2022-08-21T19:44:03;17.00;99.90
55369;DHT22;41247;49.736;8.752;2022-08-21T19:47:47;17.00;99.90
55369;DHT22;41247;49.736;8.752;2022-08-21T19:51:28;17.00;99.90
55369;DHT22;41247;49.736;8.752;2022-08-21T19:55:09;17.00;99.90
55369;DHT22;41247;49.736;8.752;2022-08-21T19:58:51;16.90;99.90
55369;DHT22;41247;49.736;8.752;2022-08-21T20:02:32;16.90;99.90
55369;DHT22;41247;49.736;8.752;2022-08-21T20:06:12;16.90;99.90
55369;DHT22;41247;49.736;8.752;2022-08-21T20:09:54;16.90;99.90
55369;DHT22;41247;49.736;8.752;2022-08-21T20:13:35;16.90;99.90
55369;DHT22;41247;49.736;8.752;2022-08-21T20:17:18;16.80;99.90
55369;DHT22;41247;49.736;8.752;2022-08-21T20:20:59;16.80;99.90
55369;DHT22;41247;49.736;8.752;2022-08-21T20:24:40;16.80;99.90
55369;DHT22;41247;49.736;8.752;2022-08-21T20:28:21;16.80;99.90
55369;DHT22;41247;49.736;8.752;2022-08-21T20:32:03;16.70;99.90
55369;DHT22;41247;49.736;8.752;2022-08-21T20:35:45;16.70;99.90
55369;DHT22;41247;49.736;8.752;2022-08-21T20:39:25;16.70;99.90
55369;DHT22;41247;49.736;8.752;2022-08-21T20:43:06;16.70;99.90
55369;DHT22;41247;49.736;8.752;2022-08-21T20:46:47;16.60;99.90
55369;DHT22;41247;49.736;8.752;2022-08-21T20:50:29;16.60;99.90
55369;DHT22;41247;49.736;8.752;2022-08-21T20:58:37;16.50;99.90
55369;DHT22;41247;49.736;8.752;2022-08-21T21:06:26;16.50;99.90
55369;DHT22;41247;49.736;8.752;2022-08-21T21:10:14;16.50;99.90
55369;DHT22;41247;49.736;8.752;2022-08-21T21:14:09;16.40;99.90
55369;DHT22;41247;49.736;8.752;2022-08-21T21:18:10;16.40;99.90
55369;DHT22;41247;49.736;8.752;2022-08-21T21:22:02;16.30;99.90
55369;DHT22;41247;49.736;8.752;2022-08-21T21:30:30;16.30;99.90
55369;DHT22;41247;49.736;8.752;2022-08-21T21:34:14;16.30;99.90
55369;DHT22;41247;49.736;8.752;2022-08-21T21:38:02;16.30;99.90
55369;DHT22;41247;49.736;8.752;2022-08-21T21:50:02;16.30;99.90
55369;DHT22;41247;49.736;8.752;2022-08-21T21:54:43;16.30;99.90
55369;DHT22;41247;49.736;8.752;2022-08-21T21:59:01;16.20;99.90
55369;DHT22;41247;49.736;8.752;2022-08-21T22:03:10;16.20;99.90
55369;DHT22;41247;49.736;8.752;2022-08-21T22:07:08;16.20;99.90
55369;DHT22;41247;49.736;8.752;2022-08-21T22:10:55;16.20;99.90
55369;DHT22;41247;49.736;8.752;2022-08-21T22:14:42;16.30;99.90
55369;DHT22;41247;49.736;8.752;2022-08-21T22:18:29;16.40;99.90
55369;DHT22;41247;49.736;8.752;2022-08-21T22:22:19;16.30;99.90
55369;DHT22;41247;49.736;8.752;2022-08-21T22:26:05;16.30;99.90
55369;DHT22;41247;49.736;8.752;2022-08-21T22:29:54;16.30;99.90
55369;DHT22;41247;49.736;8.752;2022-08-21T22:33:36;16.30;99.90
55369;DHT22;41247;49.736;8.752;2022-08-21T22:37:17;16.30;99.90
55369;DHT22;41247;49.736;8.752;2022-08-21T22:41:18;16.20;99.90
55369;DHT22;41247;49.736;8.752;2022-08-21T22:45:08;16.20;99.90
55369;DHT22;41247;49.736;8.752;2022-08-21T22:48:56;16.10;99.90
55369;DHT22;41247;49.736;8.752;2022-08-21T22:52:44;16.10;99.90
55369;DHT22;41247;49.736;8.752;2022-08-21T22:56:31;16.10;99.90
55369;DHT22;41247;49.736;8.752;2022-08-21T23:00:18;16.00;99.90
55369;DHT22;41247;49.736;8.752;2022-08-21T23:04:20;16.00;99.90
55369;DHT22;41247;49.736;8.752;2022-08-21T23:08:33;16.00;99.90
55369;DHT22;41247;49.736;8.752;2022-08-21T23:12:27;15.90;99.90
55369;DHT22;41247;49.736;8.752;2022-08-21T23:29:28;15.70;99.90
55369;DHT22;41247;49.736;8.752;2022-08-21T23:38:05;15.70;99.90
55369;DHT22;41247;49.736;8.752;2022-08-21T23:41:50;15.70;99.90
55369;DHT22;41247;49.736;8.752;2022-08-21T23:50:07;15.60;99.90
55369;DHT22;41247;49.736;8.752;2022-08-21T23:54:07;15.60;99.90
